sensor_id;sensor_type;location;lat;lon;timestamp;P1;durP1;ratioP1;P2;durP2;ratioP2
49710;SDS011;35602;44.534;18.696;2022-09-09T00:01:35;20.73;;;18.52;;
49710;SDS011;35602;44.534;18.696;2022-09-09T00:10:30;21.75;;;19.20;;
49710;SDS011;35602;44.534;18.696;2022-09-09T00:15:42;22.83;;;18.05;;
49710;SDS011;35602;44.534;18.696;2022-09-09T00:22:21;21.83;;;18.77;;
49710;SDS011;35602;44.534;18.696;2022-09-09T00:27:45;21.05;;;18.85;;
49710;SDS011;35602;44.534;18.696;2022-09-09T00:32:54;20.20;;;18.00;;
49710;SDS011;35602;44.534;18.696;2022-09-09T00:38:05;21.37;;;18.02;;
49710;SDS011;35602;44.534;18.696;2022-09-09T00:43:35;21.08;;;18.83;;
49710;SDS011;35602;44.534;18.696;2022-09-09T00:55:04;20.30;;;18.02;;
49710;SDS011;35602;44.534;18.696;2022-09-09T01:00:35;19.87;;;17.77;;
49710;SDS011;35602;44.534;18.696;2022-09-09T01:06:15;19.17;;;17.17;;
49710;SDS011;35602;44.534;18.696;2022-09-09T01:18:14;19.10;;;17.17;;
49710;SDS011;35602;44.534;18.696;2022-09-09T01:23:29;20.37;;;17.73;;
49710;SDS011;35602;44.534;18.696;2022-09-09T01:28:54;19.65;;;17.55;;
49710;SDS011;35602;44.534;18.696;2022-09-09T01:33:55;20.35;;;17.40;;
49710;SDS011;35602;44.534;18.696;2022-09-09T01:38:55;17.92;;;16.05;;
49710;SDS011;35602;44.534;18.696;2022-09-09T01:43:56;18.30;;;16.40;;
49710;SDS011;35602;44.534;18.696;2022-09-09T01:48:57;18.65;;;16.67;;
49710;SDS011;35602;44.534;18.696;2022-09-09T01:54:01;19.30;;;16.17;;
49710;SDS011;35602;44.534;18.696;2022-09-09T01:59:18;17.90;;;15.98;;
49710;SDS011;35602;44.534;18.696;2022-09-09T02:04:41;18.67;;;16.17;;
49710;SDS011;35602;44.534;18.696;2022-09-09T02:09:45;18.08;;;16.25;;
49710;SDS011;35602;44.534;18.696;2022-09-09T02:25:08;17.25;;;15.45;;
49710;SDS011;35602;44.534;18.696;2022-09-09T02:30:12;17.48;;;15.63;;
49710;SDS011;35602;44.534;18.696;2022-09-09T02:35:14;16.95;;;14.90;;
49710;SDS011;35602;44.534;18.696;2022-09-09T02:40:20;18.73;;;15.60;;
49710;SDS011;35602;44.534;18.696;2022-09-09T02:45:23;17.85;;;16.05;;
49710;SDS011;35602;44.534;18.696;2022-09-09T02:50:34;16.65;;;14.95;;
49710;SDS011;35602;44.534;18.696;2022-09-09T02:55:55;18.87;;;15.70;;
49710;SDS011;35602;44.534;18.696;2022-09-09T03:01:06;16.55;;;14.85;;
49710;SDS011;35602;44.534;18.696;2022-09-09T03:06:06;17.25;;;15.32;;
49710;SDS011;35602;44.534;18.696;2022-09-09T03:11:07;15.50;;;13.90;;
49710;SDS011;35602;44.534;18.696;2022-09-09T03:16:09;17.17;;;15.13;;
49710;SDS011;35602;44.534;18.696;2022-09-09T03:21:10;17.00;;;14.40;;
49710;SDS011;35602;44.534;18.696;2022-09-09T03:26:11;19.02;;;15.32;;
49710;SDS011;35602;44.534;18.696;2022-09-09T03:31:12;16.65;;;14.87;;
49710;SDS011;35602;44.534;18.696;2022-09-09T03:36:13;17.85;;;15.15;;
49710;SDS011;35602;44.534;18.696;2022-09-09T03:41:15;15.57;;;13.98;;
49710;SDS011;35602;44.534;18.696;2022-09-09T03:46:15;15.90;;;14.20;;
49710;SDS011;35602;44.534;18.696;2022-09-09T03:51:16;15.20;;;13.60;;
49710;SDS011;35602;44.534;18.696;2022-09-09T03:56:18;16.05;;;14.43;;
49710;SDS011;35602;44.534;18.696;2022-09-09T04:01:21;15.65;;;13.98;;
49710;SDS011;35602;44.534;18.696;2022-09-09T04:06:25;15.82;;;13.65;;
49710;SDS011;35602;44.534;18.696;2022-09-09T04:11:26;17.45;;;14.05;;
49710;SDS011;35602;44.534;18.696;2022-09-09T04:16:26;15.75;;;14.10;;
49710;SDS011;35602;44.534;18.696;2022-09-09T04:21:27;15.63;;;14.00;;
49710;SDS011;35602;44.534;18.696;2022-09-09T04:26:28;16.40;;;13.88;;
49710;SDS011;35602;44.534;18.696;2022-09-09T04:31:29;14.80;;;13.23;;
49710;SDS011;35602;44.534;18.696;2022-09-09T04:36:30;15.90;;;13.82;;
49710;SDS011;35602;44.534;18.696;2022-09-09T04:41:34;16.10;;;13.27;;
49710;SDS011;35602;44.534;18.696;2022-09-09T04:46:35;14.38;;;12.73;;
49710;SDS011;35602;44.534;18.696;2022-09-09T04:51:36;17.73;;;13.23;;
49710;SDS011;35602;44.534;18.696;2022-09-09T04:56:37;15.90;;;13.30;;
49710;SDS011;35602;44.534;18.696;2022-09-09T05:01:38;15.15;;;13.55;;
49710;SDS011;35602;44.534;18.696;2022-09-09T05:06:38;14.82;;;13.25;;
49710;SDS011;35602;44.534;18.696;2022-09-09T05:11:40;16.48;;;12.70;;
49710;SDS011;35602;44.534;18.696;2022-09-09T05:16:41;15.68;;;12.88;;
49710;SDS011;35602;44.534;18.696;2022-09-09T05:21:44;14.23;;;12.82;;
49710;SDS011;35602;44.534;18.696;2022-09-09T05:26:45;14.25;;;12.77;;
49710;SDS011;35602;44.534;18.696;2022-09-09T05:31:46;14.40;;;12.50;;
49710;SDS011;35602;44.534;18.696;2022-09-09T05:36:47;14.15;;;12.63;;
49710;SDS011;35602;44.534;18.696;2022-09-09T05:41:47;17.23;;;13.18;;
49710;SDS011;35602;44.534;18.696;2022-09-09T05:46:48;14.82;;;12.90;;
49710;SDS011;35602;44.534;18.696;2022-09-09T05:51:49;14.65;;;13.15;;
49710;SDS011;35602;44.534;18.696;2022-09-09T05:56:50;14.85;;;13.40;;
49710;SDS011;35602;44.534;18.696;2022-09-09T06:01:53;14.35;;;12.95;;
49710;SDS011;35602;44.534;18.696;2022-09-09T06:06:54;14.82;;;12.75;;
49710;SDS011;35602;44.534;18.696;2022-09-09T06:11:55;14.35;;;12.85;;
49710;SDS011;35602;44.534;18.696;2022-09-09T06:16:57;14.38;;;12.88;;
49710;SDS011;35602;44.534;18.696;2022-09-09T06:21:58;14.65;;;12.50;;
49710;SDS011;35602;44.534;18.696;2022-09-09T06:26:59;14.73;;;13.23;;
49710;SDS011;35602;44.534;18.696;2022-09-09T06:32:00;15.27;;;13.07;;
49710;SDS011;35602;44.534;18.696;2022-09-09T06:37:01;14.18;;;12.27;;
49710;SDS011;35602;44.534;18.696;2022-09-09T06:42:02;14.00;;;12.60;;
49710;SDS011;35602;44.534;18.696;2022-09-09T06:47:04;14.82;;;13.23;;
49710;SDS011;35602;44.534;18.696;2022-09-09T06:52:05;13.90;;;12.50;;
49710;SDS011;35602;44.534;18.696;2022-09-09T06:57:06;33.00;;;21.42;;
49710;SDS011;35602;44.534;18.696;2022-09-09T07:02:07;46.80;;;29.75;;
49710;SDS011;35602;44.534;18.696;2022-09-09T07:07:08;51.95;;;34.33;;
49710;SDS011;35602;44.534;18.696;2022-09-09T07:12:09;54.50;;;37.13;;
49710;SDS011;35602;44.534;18.696;2022-09-09T07:17:12;58.90;;;37.45;;
49710;SDS011;35602;44.534;18.696;2022-09-09T07:22:13;49.10;;;35.83;;
49710;SDS011;35602;44.534;18.696;2022-09-09T07:27:14;50.97;;;32.58;;
49710;SDS011;35602;44.534;18.696;2022-09-09T07:32:15;42.70;;;26.45;;
49710;SDS011;35602;44.534;18.696;2022-09-09T07:37:17;35.88;;;23.05;;
49710;SDS011;35602;44.534;18.696;2022-09-09T07:42:19;33.63;;;21.60;;
49710;SDS011;35602;44.534;18.696;2022-09-09T07:47:19;28.38;;;19.45;;
49710;SDS011;35602;44.534;18.696;2022-09-09T07:52:20;28.15;;;19.62;;
49710;SDS011;35602;44.534;18.696;2022-09-09T07:57:21;29.02;;;19.00;;
49710;SDS011;35602;44.534;18.696;2022-09-09T08:02:25;25.17;;;19.27;;
49710;SDS011;35602;44.534;18.696;2022-09-09T08:07:28;30.63;;;19.97;;
49710;SDS011;35602;44.534;18.696;2022-09-09T08:12:30;35.05;;;23.05;;
49710;SDS011;35602;44.534;18.696;2022-09-09T08:17:30;30.67;;;23.10;;
49710;SDS011;35602;44.534;18.696;2022-09-09T08:22:31;27.80;;;21.60;;
49710;SDS011;35602;44.534;18.696;2022-09-09T08:27:33;34.63;;;23.62;;
49710;SDS011;35602;44.534;18.696;2022-09-09T08:32:34;36.35;;;23.55;;
49710;SDS011;35602;44.534;18.696;2022-09-09T08:37:35;38.53;;;25.37;;
49710;SDS011;35602;44.534;18.696;2022-09-09T08:42:45;39.80;;;29.00;;
49710;SDS011;35602;44.534;18.696;2022-09-09T08:48:03;48.33;;;31.17;;
49710;SDS011;35602;44.534;18.696;2022-09-09T08:53:57;46.72;;;29.90;;
49710;SDS011;35602;44.534;18.696;2022-09-09T08:59:00;36.80;;;30.08;;
49710;SDS011;35602;44.534;18.696;2022-09-09T09:11:05;37.70;;;29.67;;
49710;SDS011;35602;44.534;18.696;2022-09-09T09:17:09;47.05;;;29.95;;
49710;SDS011;35602;44.534;18.696;2022-09-09T09:28:07;42.62;;;27.42;;
49710;SDS011;35602;44.534;18.696;2022-09-09T09:33:18;35.08;;;27.33;;
49710;SDS011;35602;44.534;18.696;2022-09-09T09:43:35;40.95;;;26.87;;
49710;SDS011;35602;44.534;18.696;2022-09-09T09:48:37;36.35;;;26.17;;
49710;SDS011;35602;44.534;18.696;2022-09-09T09:53:38;41.47;;;27.87;;
49710;SDS011;35602;44.534;18.696;2022-09-09T10:07:44;45.10;;;29.90;;
49710;SDS011;35602;44.534;18.696;2022-09-09T10:13:06;42.72;;;30.92;;
49710;SDS011;35602;44.534;18.696;2022-09-09T10:24:49;57.67;;;34.80;;
49710;SDS011;35602;44.534;18.696;2022-09-09T10:30:14;56.15;;;36.70;;
49710;SDS011;35602;44.534;18.696;2022-09-09T10:41:45;44.92;;;30.65;;
49710;SDS011;35602;44.534;18.696;2022-09-09T10:47:08;41.80;;;26.90;;
49710;SDS011;35602;44.534;18.696;2022-09-09T10:52:53;44.33;;;29.00;;
49710;SDS011;35602;44.534;18.696;2022-09-09T10:58:56;38.97;;;27.83;;
49710;SDS011;35602;44.534;18.696;2022-09-09T11:04:16;40.55;;;27.30;;
49710;SDS011;35602;44.534;18.696;2022-09-09T11:09:26;40.78;;;26.30;;
49710;SDS011;35602;44.534;18.696;2022-09-09T11:14:50;35.55;;;24.55;;
49710;SDS011;35602;44.534;18.696;2022-09-09T11:24:59;35.75;;;24.87;;
49710;SDS011;35602;44.534;18.696;2022-09-09T11:30:45;33.42;;;24.35;;
49710;SDS011;35602;44.534;18.696;2022-09-09T11:41:47;30.95;;;21.75;;
49710;SDS011;35602;44.534;18.696;2022-09-09T11:46:49;28.67;;;21.25;;
49710;SDS011;35602;44.534;18.696;2022-09-09T11:51:52;30.02;;;21.55;;
49710;SDS011;35602;44.534;18.696;2022-09-09T11:56:53;31.73;;;23.33;;
49710;SDS011;35602;44.534;18.696;2022-09-09T12:02:00;31.50;;;22.70;;
49710;SDS011;35602;44.534;18.696;2022-09-09T12:07:04;28.87;;;22.42;;
49710;SDS011;35602;44.534;18.696;2022-09-09T12:12:53;28.83;;;22.27;;
49710;SDS011;35602;44.534;18.696;2022-09-09T12:17:55;31.27;;;21.52;;
49710;SDS011;35602;44.534;18.696;2022-09-09T12:35:11;27.35;;;20.55;;
49710;SDS011;35602;44.534;18.696;2022-09-09T12:40:25;26.00;;;19.52;;
49710;SDS011;35602;44.534;18.696;2022-09-09T12:45:31;25.75;;;20.00;;
49710;SDS011;35602;44.534;18.696;2022-09-09T12:50:36;29.67;;;20.45;;
49710;SDS011;35602;44.534;18.696;2022-09-09T12:55:50;26.17;;;19.62;;
49710;SDS011;35602;44.534;18.696;2022-09-09T13:01:17;26.33;;;18.75;;
49710;SDS011;35602;44.534;18.696;2022-09-09T13:06:30;25.37;;;18.67;;
49710;SDS011;35602;44.534;18.696;2022-09-09T13:11:36;20.80;;;16.70;;
49710;SDS011;35602;44.534;18.696;2022-09-09T13:16:40;19.15;;;13.98;;
49710;SDS011;35602;44.534;18.696;2022-09-09T13:21:40;21.12;;;14.52;;
49710;SDS011;35602;44.534;18.696;2022-09-09T13:26:42;17.10;;;13.88;;
49710;SDS011;35602;44.534;18.696;2022-09-09T13:31:44;16.08;;;13.45;;
49710;SDS011;35602;44.534;18.696;2022-09-09T13:36:46;18.52;;;13.35;;
49710;SDS011;35602;44.534;18.696;2022-09-09T13:41:48;14.90;;;12.15;;
49710;SDS011;35602;44.534;18.696;2022-09-09T13:46:59;16.35;;;12.20;;
49710;SDS011;35602;44.534;18.696;2022-09-09T13:52:23;15.85;;;11.77;;
49710;SDS011;35602;44.534;18.696;2022-09-09T13:57:27;15.70;;;11.73;;
49710;SDS011;35602;44.534;18.696;2022-09-09T14:02:28;18.70;;;11.50;;
49710;SDS011;35602;44.534;18.696;2022-09-09T14:07:31;16.23;;;10.93;;
49710;SDS011;35602;44.534;18.696;2022-09-09T14:12:33;43.50;;;14.40;;
49710;SDS011;35602;44.534;18.696;2022-09-09T14:17:34;34.70;;;14.15;;
49710;SDS011;35602;44.534;18.696;2022-09-09T14:22:36;32.42;;;13.98;;
49710;SDS011;35602;44.534;18.696;2022-09-09T14:27:38;28.70;;;13.60;;
49710;SDS011;35602;44.534;18.696;2022-09-09T14:32:42;23.38;;;13.75;;
49710;SDS011;35602;44.534;18.696;2022-09-09T14:37:43;26.23;;;13.60;;
49710;SDS011;35602;44.534;18.696;2022-09-09T14:42:44;26.67;;;13.75;;
49710;SDS011;35602;44.534;18.696;2022-09-09T14:47:45;27.55;;;13.10;;
49710;SDS011;35602;44.534;18.696;2022-09-09T14:52:46;23.10;;;13.23;;
49710;SDS011;35602;44.534;18.696;2022-09-09T14:57:47;21.17;;;13.43;;
49710;SDS011;35602;44.534;18.696;2022-09-09T15:02:51;27.55;;;13.55;;
49710;SDS011;35602;44.534;18.696;2022-09-09T15:07:53;19.95;;;12.75;;
49710;SDS011;35602;44.534;18.696;2022-09-09T15:12:54;23.92;;;13.25;;
49710;SDS011;35602;44.534;18.696;2022-09-09T15:17:54;24.30;;;13.40;;
49710;SDS011;35602;44.534;18.696;2022-09-09T15:22:55;23.95;;;13.55;;
49710;SDS011;35602;44.534;18.696;2022-09-09T15:27:56;22.73;;;12.80;;
49710;SDS011;35602;44.534;18.696;2022-09-09T15:32:57;19.02;;;12.75;;
49710;SDS011;35602;44.534;18.696;2022-09-09T15:37:57;23.12;;;13.20;;
49710;SDS011;35602;44.534;18.696;2022-09-09T15:43:03;18.80;;;12.27;;
49710;SDS011;35602;44.534;18.696;2022-09-09T15:48:05;18.48;;;12.80;;
49710;SDS011;35602;44.534;18.696;2022-09-09T15:53:06;19.15;;;13.30;;
49710;SDS011;35602;44.534;18.696;2022-09-09T15:58:07;19.48;;;12.85;;
49710;SDS011;35602;44.534;18.696;2022-09-09T16:03:08;20.30;;;13.00;;
49710;SDS011;35602;44.534;18.696;2022-09-09T16:08:08;16.52;;;11.90;;
49710;SDS011;35602;44.534;18.696;2022-09-09T16:13:09;16.58;;;11.88;;
49710;SDS011;35602;44.534;18.696;2022-09-09T16:18:13;18.77;;;12.30;;
49710;SDS011;35602;44.534;18.696;2022-09-09T16:23:15;18.33;;;12.80;;
49710;SDS011;35602;44.534;18.696;2022-09-09T16:28:17;17.45;;;13.02;;
49710;SDS011;35602;44.534;18.696;2022-09-09T16:33:18;18.62;;;13.13;;
49710;SDS011;35602;44.534;18.696;2022-09-09T16:38:19;13.43;;;11.63;;
49710;SDS011;35602;44.534;18.696;2022-09-09T16:43:20;14.65;;;11.40;;
49710;SDS011;35602;44.534;18.696;2022-09-09T16:48:21;15.85;;;12.18;;
49710;SDS011;35602;44.534;18.696;2022-09-09T16:53:21;15.77;;;11.80;;
49710;SDS011;35602;44.534;18.696;2022-09-09T16:58:22;17.45;;;12.25;;
49710;SDS011;35602;44.534;18.696;2022-09-09T17:03:23;18.67;;;12.75;;
49710;SDS011;35602;44.534;18.696;2022-09-09T17:08:24;15.07;;;12.15;;
49710;SDS011;35602;44.534;18.696;2022-09-09T17:13:25;15.82;;;12.32;;
49710;SDS011;35602;44.534;18.696;2022-09-09T17:18:26;16.05;;;12.13;;
49710;SDS011;35602;44.534;18.696;2022-09-09T17:23:28;15.10;;;12.73;;
49710;SDS011;35602;44.534;18.696;2022-09-09T17:28:29;13.13;;;11.38;;
49710;SDS011;35602;44.534;18.696;2022-09-09T17:33:32;15.80;;;12.20;;
49710;SDS011;35602;44.534;18.696;2022-09-09T17:38:34;16.50;;;11.88;;
49710;SDS011;35602;44.534;18.696;2022-09-09T17:43:35;13.48;;;11.68;;
49710;SDS011;35602;44.534;18.696;2022-09-09T17:48:37;15.20;;;11.75;;
49710;SDS011;35602;44.534;18.696;2022-09-09T17:53:40;16.12;;;12.00;;
49710;SDS011;35602;44.534;18.696;2022-09-09T17:58:43;14.63;;;11.95;;
49710;SDS011;35602;44.534;18.696;2022-09-09T18:03:44;13.40;;;11.25;;
49710;SDS011;35602;44.534;18.696;2022-09-09T18:08:47;14.90;;;11.40;;
49710;SDS011;35602;44.534;18.696;2022-09-09T18:13:55;14.65;;;12.02;;
49710;SDS011;35602;44.534;18.696;2022-09-09T18:18:59;13.50;;;11.70;;
49710;SDS011;35602;44.534;18.696;2022-09-09T18:24:03;14.48;;;11.00;;
49710;SDS011;35602;44.534;18.696;2022-09-09T18:29:06;17.45;;;11.48;;
49710;SDS011;35602;44.534;18.696;2022-09-09T18:34:10;13.80;;;10.85;;
49710;SDS011;35602;44.534;18.696;2022-09-09T18:39:13;13.57;;;10.93;;
49710;SDS011;35602;44.534;18.696;2022-09-09T18:44:17;11.82;;;10.55;;
49710;SDS011;35602;44.534;18.696;2022-09-09T18:49:23;13.05;;;11.23;;
49710;SDS011;35602;44.534;18.696;2022-09-09T18:54:26;13.35;;;10.85;;
49710;SDS011;35602;44.534;18.696;2022-09-09T18:59:29;12.68;;;10.68;;
49710;SDS011;35602;44.534;18.696;2022-09-09T19:04:30;12.55;;;10.68;;
49710;SDS011;35602;44.534;18.696;2022-09-09T19:09:32;12.13;;;10.38;;
49710;SDS011;35602;44.534;18.696;2022-09-09T19:14:33;12.98;;;11.15;;
49710;SDS011;35602;44.534;18.696;2022-09-09T19:19:34;12.63;;;10.60;;
49710;SDS011;35602;44.534;18.696;2022-09-09T19:24:35;12.30;;;11.02;;
49710;SDS011;35602;44.534;18.696;2022-09-09T19:29:36;12.32;;;10.43;;
49710;SDS011;35602;44.534;18.696;2022-09-09T19:34:42;12.40;;;10.33;;
49710;SDS011;35602;44.534;18.696;2022-09-09T19:39:43;11.73;;;10.52;;
49710;SDS011;35602;44.534;18.696;2022-09-09T19:44:44;11.35;;;9.88;;
49710;SDS011;35602;44.534;18.696;2022-09-09T19:49:45;11.25;;;10.02;;
49710;SDS011;35602;44.534;18.696;2022-09-09T19:54:46;11.75;;;9.75;;
49710;SDS011;35602;44.534;18.696;2022-09-09T19:59:47;10.73;;;9.63;;
49710;SDS011;35602;44.534;18.696;2022-09-09T20:04:51;11.73;;;10.07;;
49710;SDS011;35602;44.534;18.696;2022-09-09T20:09:53;11.73;;;10.15;;
49710;SDS011;35602;44.534;18.696;2022-09-09T20:14:54;10.93;;;9.82;;
49710;SDS011;35602;44.534;18.696;2022-09-09T20:19:55;12.32;;;9.50;;
49710;SDS011;35602;44.534;18.696;2022-09-09T20:24:55;12.77;;;9.98;;
49710;SDS011;35602;44.534;18.696;2022-09-09T20:30:00;10.52;;;9.15;;
49710;SDS011;35602;44.534;18.696;2022-09-09T20:35:01;13.77;;;9.48;;
49710;SDS011;35602;44.534;18.696;2022-09-09T20:40:02;11.35;;;10.18;;
49710;SDS011;35602;44.534;18.696;2022-09-09T20:45:03;12.52;;;9.40;;
49710;SDS011;35602;44.534;18.696;2022-09-09T20:50:05;10.23;;;9.02;;
49710;SDS011;35602;44.534;18.696;2022-09-09T20:55:07;9.95;;;8.82;;
49710;SDS011;35602;44.534;18.696;2022-09-09T21:00:09;11.82;;;9.50;;
49710;SDS011;35602;44.534;18.696;2022-09-09T21:05:14;10.85;;;8.60;;
49710;SDS011;35602;44.534;18.696;2022-09-09T21:10:15;9.70;;;8.55;;
49710;SDS011;35602;44.534;18.696;2022-09-09T21:15:17;12.13;;;8.65;;
49710;SDS011;35602;44.534;18.696;2022-09-09T21:20:18;10.27;;;8.80;;
49710;SDS011;35602;44.534;18.696;2022-09-09T21:25:18;11.27;;;9.13;;
49710;SDS011;35602;44.534;18.696;2022-09-09T21:30:19;9.98;;;8.32;;
49710;SDS011;35602;44.534;18.696;2022-09-09T21:35:20;10.48;;;8.75;;
49710;SDS011;35602;44.534;18.696;2022-09-09T21:40:21;10.30;;;8.98;;
49710;SDS011;35602;44.534;18.696;2022-09-09T21:45:22;9.27;;;8.38;;
49710;SDS011;35602;44.534;18.696;2022-09-09T21:50:24;9.65;;;8.13;;
49710;SDS011;35602;44.534;18.696;2022-09-09T21:55:25;10.45;;;8.50;;
49710;SDS011;35602;44.534;18.696;2022-09-09T22:00:26;10.98;;;8.38;;
49710;SDS011;35602;44.534;18.696;2022-09-09T22:05:27;12.30;;;8.15;;
49710;SDS011;35602;44.534;18.696;2022-09-09T22:10:29;9.60;;;8.05;;
49710;SDS011;35602;44.534;18.696;2022-09-09T22:15:30;9.60;;;8.23;;
49710;SDS011;35602;44.534;18.696;2022-09-09T22:20:32;8.90;;;8.00;;
49710;SDS011;35602;44.534;18.696;2022-09-09T22:25:39;8.95;;;7.82;;
49710;SDS011;35602;44.534;18.696;2022-09-09T22:30:41;8.95;;;7.70;;
49710;SDS011;35602;44.534;18.696;2022-09-09T22:35:42;8.00;;;7.20;;
49710;SDS011;35602;44.534;18.696;2022-09-09T22:40:43;9.30;;;8.30;;
49710;SDS011;35602;44.534;18.696;2022-09-09T22:45:44;9.68;;;7.90;;
49710;SDS011;35602;44.534;18.696;2022-09-09T22:50:45;9.07;;;8.10;;
49710;SDS011;35602;44.534;18.696;2022-09-09T22:55:56;8.80;;;7.28;;
49710;SDS011;35602;44.534;18.696;2022-09-09T23:00:59;8.15;;;7.35;;
49710;SDS011;35602;44.534;18.696;2022-09-09T23:06:08;8.95;;;7.62;;
49710;SDS011;35602;44.534;18.696;2022-09-09T23:11:10;8.05;;;7.30;;
49710;SDS011;35602;44.534;18.696;2022-09-09T23:16:16;7.78;;;7.07;;
49710;SDS011;35602;44.534;18.696;2022-09-09T23:21:19;8.35;;;7.43;;
49710;SDS011;35602;44.534;18.696;2022-09-09T23:26:22;8.35;;;7.45;;
49710;SDS011;35602;44.534;18.696;2022-09-09T23:31:25;8.40;;;7.57;;
49710;SDS011;35602;44.534;18.696;2022-09-09T23:36:28;8.48;;;7.57;;
49710;SDS011;35602;44.534;18.696;2022-09-09T23:41:29;9.15;;;7.68;;
49710;SDS011;35602;44.534;18.696;2022-09-09T23:46:33;8.48;;;7.43;;
49710;SDS011;35602;44.534;18.696;2022-09-09T23:51:35;8.30;;;7.37;;
49710;SDS011;35602;44.534;18.696;2022-09-09T23:56:38;8.05;;;7.25;;
